Athens, West Virginia
Current Conditions -  °F | °C
As of 8:52 PM on Saturday 22 Nov 2014 (Local Time) from KBLF Reporting Station
Clear Clear  
Wind Chill: 43°   Ceiling: Unl
Heat Index: 45°   Visibility: 10mi
Dew Point: 15°   Wind: 5mph
Humidity: 30%   Direction: 100°E
Pressure: 30.24"   Gusts: NA
Location:  37.42°N, 81.02°W
Report Text: KBLF 230152Z AUTO 10004KT 10SM CLR 07/M09 A3024 RMK AO2 SLP246 T00721094
Loading
Personal Weather Stations






























Interactive Weather Map New forecast layout! Learn more

10-Day Weather Forecast

Advertisements
Track Severe Weather on mobile